Terminal Aerodrome Forecast
Issued by NWS

Home | Current Version | Previous Version | Text Only | Print | Product List | Glossary Off
Versions: 1 2 3 4 5 6 7 8 9 10 11 12 13

000
FTUS43 KICT 211120
TAFSLN
TAF
KSLN 211120Z 2112/2212 25006KT P6SM SCT250
     FM211700 18008KT P6SM SCT070
     FM220200 17008KT P6SM SCT250=

USA.gov is the U.S. government's official web portal to all federal, state and local government web resources and services.